Time;durP1;ratioP1;P1;durP2;ratioP2;P2;SDS_P1;SDS_P2;PMS_P1;PMS_P2;Temp;Humidity;BMP_temperature;BMP_pressure;BME280_temperature;BME280_humidity;BME280_pressure;Samples;Min_cycle;Max_cycle;Signal;HPM_P1;HPM_P2
2023/04/16 00:01:40;;;;;;;17.33;5.55;;;11.10;99.90;;;;;;6172414;23;20008;-91
2023/04/16 00:04:05;;;;;;;14.60;5.50;;;11.10;99.90;;;;;;6172389;23;20000;-91
2023/04/16 00:06:31;;;;;;;20.17;5.72;;;11.10;99.90;;;;;;6196707;23;20005;-92
2023/04/16 00:08:57;;;;;;;14.77;5.30;;;11.10;99.90;;;;;;6196943;23;20014;-92
2023/04/16 00:11:32;;;;;;;19.98;6.10;;;11.10;99.90;;;;;;6172155;23;20004;-92
2023/04/16 00:14:01;;;;;;;12.80;5.63;;;11.10;99.90;;;;;;6171594;23;20035;-93
2023/04/16 00:16:27;;;;;;;22.15;6.57;;;11.10;99.90;;;;;;6220968;23;20489;-92
2023/04/16 00:18:52;;;;;;;16.38;5.90;;;11.10;99.90;;;;;;6196069;23;20012;-92
2023/04/16 00:21:18;;;;;;;14.23;5.85;;;11.10;99.90;;;;;;6171476;23;20090;-91
2023/04/16 00:23:44;;;;;;;17.20;6.47;;;11.10;99.90;;;;;;6171677;23;20008;-92
2023/04/16 00:26:10;;;;;;;18.95;6.22;;;11.10;99.90;;;;;;6196444;23;20008;-92
2023/04/16 00:28:35;;;;;;;18.70;6.93;;;11.10;99.90;;;;;;6196687;23;20412;-86
2023/04/16 00:31:01;;;;;;;17.00;6.20;;;11.10;99.90;;;;;;6170186;23;20005;-83
2023/04/16 00:33:28;;;;;;;19.85;7.22;;;11.10;99.90;;;;;;6245291;23;20008;-82
2023/04/16 00:35:55;;;;;;;14.70;6.10;;;11.10;99.90;;;;;;6245393;23;20016;-82
2023/04/16 00:38:20;;;;;;;17.38;6.85;;;11.10;99.90;;;;;;6194691;23;20077;-83
2023/04/16 00:40:46;;;;;;;17.27;6.75;;;11.10;99.90;;;;;;6219658;23;20004;-82
2023/04/16 00:43:24;;;;;;;16.38;7.00;;;11.00;99.90;;;;;;6219497;23;20008;-83
2023/04/16 00:45:50;;;;;;;17.77;6.57;;;11.00;99.90;;;;;;6251834;23;20000;-84
2023/04/16 00:48:16;;;;;;;15.50;6.63;;;11.10;99.90;;;;;;6240048;23;20001;-84
2023/04/16 00:50:42;;;;;;;14.90;6.80;;;11.00;99.90;;;;;;6209596;23;20020;-84
2023/04/16 00:53:08;;;;;;;16.42;7.50;;;11.10;99.90;;;;;;6185685;23;20014;-84
2023/04/16 00:55:34;;;;;;;18.95;7.18;;;11.10;99.90;;;;;;6240101;23;20037;-85
2023/04/16 00:58:06;;;;;;;19.75;8.13;;;11.00;99.90;;;;;;6268657;23;19988;-85
2023/04/16 01:00:32;;;;;;;17.33;8.00;;;11.10;99.90;;;;;;6265893;23;20004;-85
2023/04/16 01:02:58;;;;;;;19.83;8.20;;;11.00;99.90;;;;;;6231633;23;20004;-85
2023/04/16 01:05:24;;;;;;;24.55;8.60;;;11.00;99.90;;;;;;6246832;23;20012;-85
2023/04/16 01:07:51;;;;;;;18.73;7.60;;;11.00;99.90;;;;;;6195165;23;20332;-85
2023/04/16 01:10:16;;;;;;;22.02;8.15;;;11.00;99.90;;;;;;6220275;23;20330;-85
2023/04/16 01:12:42;;;;;;;20.15;8.32;;;11.00;99.90;;;;;;6195113;23;20023;-85
2023/04/16 01:15:08;;;;;;;19.20;7.63;;;11.00;99.90;;;;;;6219916;23;20031;-85
2023/04/16 01:17:34;;;;;;;23.85;8.50;;;11.00;99.90;;;;;;6219978;23;20004;-85
2023/04/16 01:20:00;;;;;;;21.85;8.43;;;11.00;99.90;;;;;;6220165;23;20012;-83
2023/04/16 01:22:27;;;;;;;17.20;7.53;;;11.00;99.90;;;;;;6246421;23;20008;-83
2023/04/16 01:24:53;;;;;;;23.48;8.15;;;11.00;99.90;;;;;;6246614;23;20020;-83
2023/04/16 01:27:18;;;;;;;23.50;8.80;;;11.00;99.90;;;;;;6219621;23;20011;-83
2023/04/16 01:29:44;;;;;;;22.05;8.60;;;11.00;99.90;;;;;;6195365;23;20000;-83
2023/04/16 01:32:10;;;;;;;24.85;8.50;;;11.00;99.90;;;;;;6169766;23;20022;-83
2023/04/16 01:34:35;;;;;;;20.15;8.55;;;11.00;99.90;;;;;;6194902;23;20095;-83
2023/04/16 01:37:02;;;;;;;21.98;8.93;;;11.00;99.90;;;;;;6194298;23;20327;-83
2023/04/16 01:39:28;;;;;;;27.60;8.63;;;11.00;99.90;;;;;;6219867;23;20016;-82
2023/04/16 01:41:54;;;;;;;22.73;8.63;;;11.00;99.90;;;;;;6194790;23;20074;-85
2023/04/16 01:44:20;;;;;;;24.23;9.80;;;11.00;99.90;;;;;;6219919;23;20008;-85
2023/04/16 01:46:46;;;;;;;23.00;10.13;;;11.00;99.90;;;;;;6245189;23;20008;-87
2023/04/16 01:49:12;;;;;;;27.65;10.30;;;11.00;99.90;;;;;;6246799;23;20004;-87
2023/04/16 01:51:38;;;;;;;24.33;9.70;;;11.00;99.90;;;;;;6194997;23;20004;-87
2023/04/16 01:54:04;;;;;;;25.00;9.55;;;11.00;99.90;;;;;;6195052;23;20066;-83
2023/04/16 01:56:29;;;;;;;25.13;10.48;;;11.00;99.90;;;;;;6194950;23;20008;-84
2023/04/16 01:58:55;;;;;;;26.63;9.73;;;10.90;99.90;;;;;;6194722;23;20338;-83
2023/04/16 02:01:21;;;;;;;21.67;9.65;;;11.00;99.90;;;;;;6194578;23;20008;-83
2023/04/16 02:03:47;;;;;;;29.63;11.43;;;11.00;99.90;;;;;;6248872;23;20071;-83
2023/04/16 02:06:13;;;;;;;30.65;11.07;;;11.00;99.90;;;;;;6196862;23;20004;-83
2023/04/16 02:08:40;;;;;;;26.52;11.10;;;11.00;99.90;;;;;;6221549;23;20064;-84
2023/04/16 02:11:06;;;;;;;35.35;11.40;;;11.00;99.90;;;;;;6172432;23;20390;-85
2023/04/16 02:13:32;;;;;;;28.73;11.90;;;11.00;99.90;;;;;;6248709;23;20404;-83
2023/04/16 02:15:57;;;;;;;26.65;11.48;;;10.90;99.90;;;;;;6222753;23;20004;-84
2023/04/16 02:18:23;;;;;;;29.10;11.63;;;11.00;99.90;;;;;;6222050;23;20011;-83
2023/04/16 02:20:48;;;;;;;29.33;12.02;;;10.90;99.90;;;;;;6222372;23;20423;-84
2023/04/16 02:23:14;;;;;;;33.20;13.02;;;10.90;99.90;;;;;;6221971;23;20008;-83
2023/04/16 02:25:45;;;;;;;37.67;12.18;;;10.90;99.90;;;;;;6221694;23;20070;-82
2023/04/16 02:28:13;;;;;;;34.70;13.15;;;10.90;99.90;;;;;;6221009;23;20377;-83
2023/04/16 02:30:39;;;;;;;27.42;12.13;;;10.90;99.90;;;;;;6248074;23;20000;-84
2023/04/16 02:33:36;;;;;;;30.40;13.38;;;10.90;99.90;;;;;;6196246;23;20331;-82
2023/04/16 02:36:02;;;;;;;29.65;12.13;;;10.90;99.90;;;;;;6221065;23;20028;-83
2023/04/16 02:38:37;;;;;;;33.05;12.73;;;10.90;99.90;;;;;;6210729;23;20063;-83
2023/04/16 02:41:02;;;;;;;31.65;14.10;;;10.90;99.90;;;;;;6162057;23;20049;-86
2023/04/16 02:43:28;;;;;;;28.05;12.95;;;10.90;99.90;;;;;;6187446;23;20410;-91
2023/04/16 02:46:00;;;;;;;27.50;12.93;;;10.90;99.90;;;;;;6138003;23;20048;-91
2023/04/16 02:48:25;;;;;;;32.85;13.00;;;10.80;99.90;;;;;;6187175;23;20044;-92
2023/04/16 02:50:51;;;;;;;34.90;13.27;;;10.90;99.90;;;;;;6162360;23;20001;-91
2023/04/16 02:53:17;;;;;;;32.22;12.40;;;10.90;99.90;;;;;;6162502;23;20051;-92
2023/04/16 02:55:52;;;;;;;30.17;12.48;;;10.90;99.90;;;;;;6137716;23;20040;-91
2023/04/16 02:58:23;;;;;;;31.33;13.48;;;10.90;99.90;;;;;;6186877;23;20009;-91
2023/04/16 03:00:49;;;;;;;;;;;10.80;99.90;;;;;;6211657;23;20039;-86
2023/04/16 03:03:16;;;;;;;29.75;12.32;;;10.90;99.90;;;;;;6161050;23;19908;-84
2023/04/16 03:05:43;;;;;;;31.20;13.10;;;10.90;99.90;;;;;;6186163;23;20004;-84
2023/04/16 03:08:42;;;;;;;34.28;12.55;;;10.80;99.90;;;;;;6187580;23;19997;-84
2023/04/16 03:11:08;;;;;;;33.08;13.45;;;10.80;99.90;;;;;;6185915;23;20073;-84
2023/04/16 03:13:33;;;;;;;35.22;12.90;;;10.90;99.90;;;;;;6185744;23;20013;-85
2023/04/16 03:15:59;;;;;;;28.95;13.48;;;10.80;99.90;;;;;;6161363;23;20071;-91
2023/04/16 03:18:25;;;;;;;28.92;13.18;;;10.90;99.90;;;;;;6187212;23;20001;-91
2023/04/16 03:20:51;;;;;;;27.75;13.13;;;10.90;99.90;;;;;;6137574;23;20005;-91
2023/04/16 03:23:17;;;;;;;31.10;14.73;;;10.90;99.90;;;;;;6161718;23;20333;-87
2023/04/16 03:25:45;;;;;;;36.72;14.73;;;10.80;99.90;;;;;;6162531;23;20004;-87
2023/04/16 03:28:11;;;;;;;29.67;13.27;;;10.90;99.90;;;;;;6161854;23;20008;-87
2023/04/16 03:30:37;;;;;;;32.55;15.52;;;10.90;99.90;;;;;;6185795;23;20001;-87
2023/04/16 03:33:03;;;;;;;26.83;13.82;;;10.90;99.90;;;;;;6185961;23;20005;-83
2023/04/16 03:35:28;;;;;;;32.00;14.90;;;10.90;99.90;;;;;;6185931;23;20100;-83
2023/04/16 03:37:54;;;;;;;29.15;13.95;;;10.90;99.90;;;;;;6151574;23;20050;-83
2023/04/16 03:40:20;;;;;;;35.08;14.68;;;10.90;99.90;;;;;;6173009;23;20012;-83
2023/04/16 03:42:46;;;;;;;30.40;15.40;;;10.90;99.90;;;;;;6231130;23;20047;-83
2023/04/16 03:45:11;;;;;;;28.55;14.45;;;10.90;99.90;;;;;;6228643;23;20004;-92
2023/04/16 03:47:37;;;;;;;30.95;14.93;;;10.90;99.90;;;;;;6203950;23;20004;-92
2023/04/16 03:50:03;;;;;;;35.00;15.15;;;10.90;99.90;;;;;;6223831;23;20080;-92
2023/04/16 03:52:28;;;;;;;35.13;14.40;;;10.90;99.90;;;;;;6196768;23;20454;-91
2023/04/16 03:54:54;;;;;;;36.55;14.60;;;10.90;99.90;;;;;;6196632;23;20008;-87
2023/04/16 03:57:20;;;;;;;32.95;15.20;;;10.90;99.90;;;;;;6247893;23;20015;-86
2023/04/16 03:59:45;;;;;;;31.23;14.32;;;10.90;99.90;;;;;;6195910;23;20370;-86
2023/04/16 04:02:11;;;;;;;35.10;15.10;;;10.90;99.90;;;;;;6220355;23;20004;-86
2023/04/16 04:04:37;;;;;;;35.75;15.65;;;10.90;99.90;;;;;;6220411;23;20432;-85
2023/04/16 04:07:02;;;;;;;31.30;15.00;;;10.90;99.90;;;;;;6196291;23;20008;-91
2023/04/16 04:09:28;;;;;;;29.92;14.95;;;10.90;99.90;;;;;;6197108;23;20028;-91
2023/04/16 04:11:54;;;;;;;33.92;15.32;;;10.90;99.90;;;;;;6196517;23;20118;-92
2023/04/16 04:14:19;;;;;;;34.30;16.10;;;10.90;99.90;;;;;;6199673;23;20016;-89
2023/04/16 04:16:45;;;;;;;31.75;15.43;;;10.90;99.90;;;;;;6202875;23;20072;-90
2023/04/16 04:19:11;;;;;;;30.48;15.00;;;10.80;99.90;;;;;;6228138;23;20023;-85
2023/04/16 04:21:37;;;;;;;30.48;15.23;;;10.90;99.90;;;;;;6194768;23;20096;-82
2023/04/16 04:24:03;;;;;;;33.25;16.42;;;10.90;99.90;;;;;;6263908;23;20074;-82
2023/04/16 04:26:29;;;;;;;34.25;16.13;;;10.80;99.90;;;;;;6201010;23;20083;-83
2023/04/16 04:28:55;;;;;;;28.73;15.85;;;10.80;99.90;;;;;;6189751;23;20004;-82
2023/04/16 04:32:05;;;;;;;34.05;17.05;;;10.80;99.90;;;;;;6264222;23;20000;-82
2023/04/16 04:34:30;;;;;;;35.83;16.10;;;10.80;99.90;;;;;;6236449;23;20190;-82
2023/04/16 04:36:56;;;;;;;33.42;16.63;;;10.80;99.90;;;;;;6183005;23;20054;-82
2023/04/16 04:39:22;;;;;;;35.72;16.50;;;10.90;99.90;;;;;;6229071;23;20015;-82
2023/04/16 04:41:47;;;;;;;35.30;16.35;;;10.90;99.90;;;;;;6246827;23;20384;-83
2023/04/16 04:44:13;;;;;;;37.10;16.17;;;10.90;99.90;;;;;;6170529;23;20090;-82
2023/04/16 04:46:39;;;;;;;35.88;15.88;;;10.80;99.90;;;;;;6219879;23;20000;-83
2023/04/16 04:49:05;;;;;;;37.28;16.25;;;10.90;99.90;;;;;;6195895;23;20020;-82
2023/04/16 04:51:31;;;;;;;37.92;16.45;;;10.80;99.90;;;;;;6220471;23;20004;-84
2023/04/16 04:53:57;;;;;;;40.83;17.88;;;10.90;99.90;;;;;;6195649;23;20004;-84
2023/04/16 04:56:44;;;;;;;39.05;17.73;;;10.90;99.90;;;;;;6203100;23;20000;-82
2023/04/16 04:59:10;;;;;;;40.45;18.05;;;10.90;99.90;;;;;;6232554;23;20026;-84
2023/04/16 05:01:35;;;;;;;36.60;17.35;;;10.90;99.90;;;;;;6195033;23;20008;-84
2023/04/16 05:04:01;;;;;;;41.90;17.98;;;10.90;99.90;;;;;;6194977;23;20014;-84
2023/04/16 05:06:27;;;;;;;43.42;18.27;;;10.90;99.90;;;;;;6220204;23;20000;-84
2023/04/16 05:08:52;;;;;;;41.10;17.65;;;10.90;99.90;;;;;;6220099;23;20011;-84
2023/04/16 05:11:18;;;;;;;40.25;17.45;;;10.90;99.90;;;;;;6195140;23;20062;-84
2023/04/16 05:13:44;;;;;;;40.65;17.77;;;10.80;99.90;;;;;;6220236;23;20020;-82
2023/04/16 05:16:09;;;;;;;45.50;20.45;;;10.90;99.90;;;;;;6194531;23;20435;-82
2023/04/16 05:18:35;;;;;;;41.35;17.95;;;10.90;99.90;;;;;;6169710;23;20092;-82
2023/04/16 05:21:01;;;;;;;47.75;19.25;;;10.90;99.90;;;;;;6219435;23;20083;-82
2023/04/16 05:23:27;;;;;;;42.83;18.42;;;10.90;99.90;;;;;;6193465;23;20012;-82
2023/04/16 05:25:52;;;;;;;47.67;19.05;;;10.80;99.90;;;;;;6246501;23;20000;-83
2023/04/16 05:28:18;;;;;;;51.10;19.52;;;10.90;99.90;;;;;;6220275;23;20032;-83
2023/04/16 05:30:44;;;;;;;47.05;20.25;;;10.90;99.90;;;;;;6169802;23;20016;-83
2023/04/16 05:33:09;;;;;;;41.85;19.40;;;10.90;99.90;;;;;;6219657;23;20086;-83
2023/04/16 05:35:35;;;;;;;44.78;20.25;;;10.80;99.90;;;;;;6219480;23;20005;-83
2023/04/16 05:38:01;;;;;;;47.35;20.05;;;10.80;99.90;;;;;;6167480;23;20020;-83
2023/04/16 05:40:26;;;;;;;43.50;21.23;;;10.80;99.90;;;;;;6224114;23;20043;-92
2023/04/16 05:42:52;;;;;;;45.33;20.60;;;10.80;99.90;;;;;;6176493;23;20016;-92
2023/04/16 05:45:18;;;;;;;44.70;19.20;;;10.90;99.90;;;;;;6201046;23;20023;-85
2023/04/16 05:47:43;;;;;;;38.58;19.23;;;10.80;99.90;;;;;;6190902;23;20004;-85
2023/04/16 05:50:09;;;;;;;42.88;19.85;;;10.90;99.90;;;;;;6242495;23;20065;-85
2023/04/16 05:52:35;;;;;;;43.90;20.13;;;10.80;99.90;;;;;;6217191;23;20008;-85
2023/04/16 05:55:01;;;;;;;46.63;19.70;;;10.80;99.90;;;;;;6217629;23;20030;-85
2023/04/16 05:57:30;;;;;;;37.55;19.02;;;10.80;99.90;;;;;;6217976;23;20053;-84
2023/04/16 05:59:55;;;;;;;36.25;18.30;;;10.80;99.90;;;;;;6193156;23;20010;-84
2023/04/16 06:02:21;;;;;;;33.10;18.05;;;10.90;99.90;;;;;;6238391;23;20004;-83
2023/04/16 06:04:48;;;;;;;32.50;16.83;;;10.90;99.90;;;;;;6221308;23;20051;-83
2023/04/16 06:07:14;;;;;;;32.83;16.30;;;10.90;99.90;;;;;;6196108;23;20424;-83
2023/04/16 06:09:40;;;;;;;27.10;14.95;;;10.80;99.90;;;;;;6221114;23;20091;-83
2023/04/16 06:12:07;;;;;;;25.40;15.55;;;10.90;99.90;;;;;;6195818;23;20004;-83
2023/04/16 06:14:32;;;;;;;28.48;15.13;;;10.90;99.90;;;;;;6220934;23;20339;-83
2023/04/16 06:16:58;;;;;;;29.45;15.15;;;10.90;99.90;;;;;;6220988;23;20008;-83
2023/04/16 06:19:24;;;;;;;29.25;15.00;;;10.90;99.90;;;;;;6196208;23;20091;-87
2023/04/16 06:21:50;;;;;;;26.25;15.38;;;10.90;99.90;;;;;;6221506;23;20045;-87
2023/04/16 06:24:17;;;;;;;26.02;14.75;;;10.90;99.90;;;;;;6221428;23;20050;-87
2023/04/16 06:26:43;;;;;;;30.65;15.55;;;10.90;99.90;;;;;;6197024;23;20004;-88
2023/04/16 06:29:08;;;;;;;29.38;15.85;;;10.90;99.90;;;;;;6171540;23;20004;-87
2023/04/16 06:31:34;;;;;;;30.02;15.27;;;10.90;99.90;;;;;;6196151;23;20039;-87
2023/04/16 06:34:00;;;;;;;26.65;14.57;;;10.90;99.90;;;;;;6171448;23;20008;-87
2023/04/16 06:36:26;;;;;;;27.15;14.38;;;10.90;99.90;;;;;;6220933;23;20004;-83
2023/04/16 06:38:52;;;;;;;27.48;15.20;;;10.90;99.90;;;;;;6221285;23;20454;-83
2023/04/16 06:41:18;;;;;;;29.33;15.10;;;10.90;99.90;;;;;;6195928;23;20008;-87
2023/04/16 06:43:43;;;;;;;29.65;14.68;;;11.00;99.90;;;;;;6196208;23;20339;-87
2023/04/16 06:46:10;;;;;;;31.08;14.80;;;11.00;99.90;;;;;;6221250;23;20447;-87
2023/04/16 06:48:35;;;;;;;27.73;15.57;;;11.00;99.90;;;;;;6220839;23;20011;-87
2023/04/16 06:51:04;;;;;;;30.58;15.30;;;11.00;99.90;;;;;;6221083;23;20004;-87
2023/04/16 06:53:30;;;;;;;29.33;15.52;;;11.00;99.90;;;;;;6221130;23;20008;-87
2023/04/16 06:55:56;;;;;;;30.77;15.05;;;11.00;99.90;;;;;;6171625;23;20004;-87
2023/04/16 06:58:21;;;;;;;28.55;15.73;;;11.00;99.90;;;;;;6248393;23;20089;-88
2023/04/16 07:00:47;;;;;;;28.60;15.65;;;11.00;99.90;;;;;;6171708;23;20078;-88
2023/04/16 07:03:13;;;;;;;34.67;16.52;;;11.10;99.90;;;;;;6171165;23;20008;-87
2023/04/16 07:05:39;;;;;;;26.77;14.75;;;11.10;99.90;;;;;;6196076;23;20464;-87
2023/04/16 07:08:04;;;;;;;28.83;15.13;;;11.10;99.90;;;;;;6195890;23;20011;-87
2023/04/16 07:10:30;;;;;;;36.25;16.55;;;11.10;99.90;;;;;;6207837;23;20031;-91
2023/04/16 07:12:56;;;;;;;28.15;15.18;;;11.10;99.90;;;;;;6192418;23;20066;-93
2023/04/16 07:15:22;;;;;;;28.65;15.82;;;11.20;99.90;;;;;;6217309;23;20028;-90
2023/04/16 07:17:47;;;;;;;29.52;15.70;;;11.20;99.90;;;;;;6218355;23;20015;-92
2023/04/16 07:20:13;;;;;;;30.00;15.60;;;11.20;99.90;;;;;;6238136;23;20000;-86
2023/04/16 07:22:39;;;;;;;29.77;15.40;;;11.20;99.90;;;;;;6170436;23;20431;-86
2023/04/16 07:25:05;;;;;;;32.08;16.13;;;11.20;99.90;;;;;;6195594;23;20004;-87
2023/04/16 07:27:30;;;;;;;28.67;15.15;;;11.30;99.90;;;;;;6221256;23;20363;-84
2023/04/16 07:29:56;;;;;;;30.35;15.50;;;11.30;99.90;;;;;;6220800;23;20331;-84
2023/04/16 07:32:22;;;;;;;27.17;15.45;;;11.30;99.90;;;;;;6170854;23;20423;-85
2023/04/16 07:34:47;;;;;;;31.65;16.20;;;11.30;99.90;;;;;;6196313;23;20070;-92
2023/04/16 07:37:13;;;;;;;29.02;15.35;;;11.30;99.90;;;;;;6172231;23;20019;-91
2023/04/16 07:39:39;;;;;;;25.42;14.90;;;11.30;99.90;;;;;;6221396;23;20092;-92
2023/04/16 07:42:20;;;;;;;26.73;14.52;;;11.40;99.90;;;;;;6196305;23;20039;-84
2023/04/16 07:44:45;;;;;;;;;;;11.40;99.90;;;;;;6221562;23;20010;-90
2023/04/16 07:47:11;;;;;;;26.20;15.60;;;11.40;99.90;;;;;;6208303;23;19939;-90
2023/04/16 07:49:37;;;;;;;25.92;15.52;;;11.40;99.90;;;;;;6199828;23;20423;-84
2023/04/16 07:52:03;;;;;;;28.63;15.85;;;11.40;99.90;;;;;;6195304;23;20412;-84
2023/04/16 07:54:28;;;;;;;28.15;14.90;;;11.40;99.90;;;;;;6170651;23;20004;-84
2023/04/16 07:56:54;;;;;;;28.42;15.27;;;11.50;99.90;;;;;;6195530;23;20005;-84
2023/04/16 07:59:19;;;;;;;23.90;15.85;;;11.50;99.90;;;;;;6196525;23;20008;-93
2023/04/16 08:01:45;;;;;;;23.95;14.93;;;11.50;99.90;;;;;;6171931;23;20008;-92
2023/04/16 08:04:11;;;;;;;25.38;14.43;;;11.50;99.90;;;;;;6196818;23;20435;-92
2023/04/16 08:06:37;;;;;;;28.80;15.70;;;11.50;99.90;;;;;;6196545;23;20001;-92
2023/04/16 08:09:02;;;;;;;25.05;15.27;;;11.50;99.90;;;;;;6196367;23;20027;-87
2023/04/16 08:11:28;;;;;;;25.23;15.38;;;11.50;99.90;;;;;;6221413;23;20173;-92
2023/04/16 08:13:54;;;;;;;25.33;15.82;;;11.50;99.90;;;;;;6172926;23;20008;-91
2023/04/16 08:16:19;;;;;;;27.30;16.00;;;11.60;99.90;;;;;;6221569;23;20076;-92
2023/04/16 08:18:45;;;;;;;28.13;15.02;;;11.60;99.90;;;;;;6195911;23;20483;-91
2023/04/16 08:21:11;;;;;;;29.73;15.85;;;11.60;99.90;;;;;;6171053;23;20031;-92
2023/04/16 08:23:37;;;;;;;27.75;16.48;;;11.70;99.90;;;;;;6196176;23;20012;-92
2023/04/16 08:26:02;;;;;;;29.45;14.85;;;11.70;99.90;;;;;;6171756;23;20004;-92
2023/04/16 08:28:28;;;;;;;28.02;15.52;;;11.70;99.90;;;;;;6171555;23;20004;-95
2023/04/16 08:30:54;;;;;;;29.58;16.20;;;11.70;99.90;;;;;;6172077;23;20091;-94
2023/04/16 08:33:20;;;;;;;30.77;16.75;;;11.70;99.90;;;;;;6171363;23;20104;-86
2023/04/16 08:35:46;;;;;;;31.88;16.63;;;11.80;99.90;;;;;;6195005;23;20490;-87
2023/04/16 08:38:11;;;;;;;31.35;17.73;;;11.80;99.90;;;;;;6170109;23;20371;-86
2023/04/16 08:40:46;;;;;;;24.38;15.57;;;11.80;99.90;;;;;;6170053;23;20027;-86
2023/04/16 08:43:14;;;;;;;27.55;16.55;;;11.80;99.90;;;;;;6222563;23;20065;-86
2023/04/16 08:45:43;;;;;;;32.65;17.58;;;11.80;99.90;;;;;;6196166;23;20011;-93
2023/04/16 08:48:11;;;;;;;30.65;16.58;;;11.80;99.90;;;;;;6221219;23;20023;-94
2023/04/16 08:50:37;;;;;;;30.10;16.95;;;11.80;99.90;;;;;;6196783;23;20327;-90
2023/04/16 08:53:05;;;;;;;35.08;17.67;;;11.90;99.90;;;;;;6171186;23;20012;-94
2023/04/16 08:55:45;;;;;;;27.70;17.70;;;11.90;99.90;;;;;;6247870;23;20329;-93
2023/04/16 08:58:18;;;;;;;33.25;17.25;;;11.90;99.90;;;;;;6221448;23;20481;-93
2023/04/16 09:00:45;;;;;;;27.85;16.95;;;11.90;99.90;;;;;;6196167;23;20012;-93
2023/04/16 09:03:11;;;;;;;29.65;17.50;;;12.00;99.90;;;;;;6221315;23;20004;-93
2023/04/16 09:05:38;;;;;;;30.05;17.70;;;12.00;99.90;;;;;;6221351;23;19996;-90
2023/04/16 09:08:05;;;;;;;31.63;17.60;;;12.00;99.90;;;;;;6195918;23;20004;-90
2023/04/16 09:10:31;;;;;;;29.27;17.98;;;12.00;99.90;;;;;;6220942;23;20032;-90
2023/04/16 09:12:57;;;;;;;35.50;18.88;;;12.10;99.90;;;;;;6196324;23;20379;-89
2023/04/16 09:15:26;;;;;;;39.20;18.98;;;12.10;99.90;;;;;;6220779;23;20030;-89
2023/04/16 09:17:52;;;;;;;36.33;19.30;;;12.10;99.90;;;;;;6220528;23;20427;-89
2023/04/16 09:20:19;;;;;;;33.85;19.08;;;12.10;99.90;;;;;;6195947;23;20012;-89
2023/04/16 09:22:45;;;;;;;32.63;18.83;;;12.20;99.90;;;;;;6196172;23;20008;-88
2023/04/16 09:25:11;;;;;;;36.45;18.75;;;12.20;99.90;;;;;;6196310;23;20007;-88
2023/04/16 09:27:38;;;;;;;33.83;19.30;;;12.20;99.90;;;;;;6220970;23;20370;-88
2023/04/16 09:30:20;;;;;;;37.15;19.55;;;12.20;99.90;;;;;;6220614;23;20050;-89
2023/04/16 09:32:47;;;;;;;35.95;19.55;;;12.30;99.90;;;;;;6220773;23;20050;-88
2023/04/16 09:35:13;;;;;;;37.50;20.08;;;12.30;99.90;;;;;;6221503;23;20008;-88
2023/04/16 09:37:39;;;;;;;31.83;18.65;;;12.30;99.90;;;;;;6195885;23;20095;-85
2023/04/16 09:40:06;;;;;;;38.00;19.75;;;12.30;99.90;;;;;;6221814;23;20019;-87
2023/04/16 09:42:35;;;;;;;34.60;19.40;;;12.40;99.90;;;;;;6246241;23;20019;-86
2023/04/16 09:45:01;;;;;;;34.88;20.40;;;12.40;99.90;;;;;;6219361;23;20083;-86
2023/04/16 09:47:41;;;;;;;31.27;18.98;;;12.40;99.90;;;;;;6194621;23;20004;-86
2023/04/16 09:50:18;;;;;;;33.38;18.58;;;12.40;99.90;;;;;;6227898;23;19984;-86
2023/04/16 09:52:46;;;;;;;33.92;19.45;;;12.50;99.90;;;;;;6199499;23;20012;-86
2023/04/16 09:55:12;;;;;;;34.35;18.77;;;12.50;99.90;;;;;;6220489;23;20066;-87
2023/04/16 09:57:38;;;;;;;34.05;19.05;;;12.60;99.90;;;;;;6170936;23;20012;-88
2023/04/16 10:00:07;;;;;;;30.98;18.92;;;12.70;99.90;;;;;;6196164;23;20004;-88
2023/04/16 10:02:40;;;;;;;33.05;18.80;;;12.70;99.90;;;;;;6197034;23;20004;-88
2023/04/16 10:05:06;;;;;;;32.28;18.20;;;12.80;99.90;;;;;;6223912;23;20023;-88
2023/04/16 10:07:36;;;;;;;37.42;20.15;;;12.80;99.90;;;;;;6196091;23;20000;-87
2023/04/16 10:10:02;;;;;;;30.92;17.70;;;12.90;99.90;;;;;;6194577;23;20378;-86
2023/04/16 10:12:31;;;;;;;33.22;19.42;;;12.90;99.90;;;;;;6219680;23;20019;-87
2023/04/16 10:14:57;;;;;;;37.78;19.23;;;13.00;99.90;;;;;;6219694;23;20004;-87
2023/04/16 10:17:23;;;;;;;29.42;17.10;;;13.00;99.90;;;;;;6195284;23;20004;-87
2023/04/16 10:19:50;;;;;;;32.22;18.42;;;13.00;99.90;;;;;;6195707;23;20009;-89
2023/04/16 10:22:16;;;;;;;32.30;18.52;;;13.10;99.90;;;;;;6194258;23;20004;-88
2023/04/16 10:24:52;;;;;;;35.92;18.30;;;13.10;99.90;;;;;;6195962;23;20027;-89
2023/04/16 10:27:30;;;;;;;33.80;18.58;;;13.10;99.90;;;;;;6196481;23;20001;-89
2023/04/16 10:29:56;;;;;;;30.35;17.80;;;13.20;99.90;;;;;;6221762;23;20458;-88
2023/04/16 10:32:27;;;;;;;30.83;17.88;;;13.20;99.90;;;;;;6196866;23;20005;-88
2023/04/16 10:34:54;;;;;;;34.72;17.83;;;13.30;99.90;;;;;;6221958;23;20004;-89
2023/04/16 10:37:30;;;;;;;30.23;17.25;;;13.30;99.90;;;;;;6196880;23;20012;-89
2023/04/16 10:39:56;;;;;;;35.35;17.85;;;13.30;99.90;;;;;;6221799;23;20159;-89
2023/04/16 10:42:22;;;;;;;33.72;17.50;;;13.40;99.90;;;;;;6221524;23;20343;-89
2023/04/16 10:44:48;;;;;;;37.15;17.95;;;13.40;99.90;;;;;;6196765;23;20000;-89
2023/04/16 10:47:14;;;;;;;30.25;16.40;;;13.50;99.90;;;;;;6177030;23;20028;-91
2023/04/16 10:49:41;;;;;;;30.58;17.00;;;13.50;99.90;;;;;;6201977;23;20000;-92
2023/04/16 10:52:15;;;;;;;30.80;16.83;;;13.50;99.90;;;;;;6226172;23;20336;-92
2023/04/16 10:54:42;;;;;;;29.25;17.05;;;13.60;99.90;;;;;;6223516;23;20000;-92
2023/04/16 10:57:13;;;;;;;31.23;16.98;;;13.60;99.90;;;;;;6222150;23;20008;-92
2023/04/16 10:59:41;;;;;;;29.73;16.40;;;13.60;99.90;;;;;;6222089;23;20011;-93
2023/04/16 11:02:12;;;;;;;29.08;17.27;;;13.60;99.90;;;;;;6197285;23;20069;-92
2023/04/16 11:04:41;;;;;;;;;;;13.70;99.90;;;;;;6222761;23;20004;-93
2023/04/16 11:07:19;;;;;;;34.17;16.85;;;13.70;99.90;;;;;;6224160;23;19899;-93
2023/04/16 11:09:45;;;;;;;31.75;17.23;;;13.80;99.90;;;;;;6196976;23;20031;-92
2023/04/16 11:12:13;;;;;;;27.25;15.38;;;13.80;99.90;;;;;;6223344;23;20004;-92
2023/04/16 11:14:40;;;;;;;26.70;16.38;;;13.90;99.90;;;;;;6222813;23;20007;-92
2023/04/16 11:17:06;;;;;;;31.23;16.67;;;13.90;99.90;;;;;;6197046;23;20008;-91
2023/04/16 11:19:32;;;;;;;27.88;16.60;;;14.00;99.90;;;;;;6222921;23;20000;-91
2023/04/16 11:21:58;;;;;;;27.52;16.13;;;14.00;99.90;;;;;;6222465;23;20004;-90
2023/04/16 11:24:29;;;;;;;26.60;15.75;;;14.10;99.90;;;;;;6222466;23;20004;-91
2023/04/16 11:26:55;;;;;;;27.42;16.00;;;14.10;99.90;;;;;;6223006;23;19996;-91
2023/04/16 11:29:21;;;;;;;29.73;15.35;;;14.20;99.90;;;;;;6197822;23;20001;-90
2023/04/16 11:31:50;;;;;;;27.48;16.60;;;14.20;99.90;;;;;;6197747;23;20331;-91
2023/04/16 11:34:19;;;;;;;24.33;15.27;;;14.30;99.90;;;;;;6222210;23;20142;-93
2023/04/16 11:36:46;;;;;;;27.30;14.63;;;14.30;99.90;;;;;;6222433;23;20008;-87
2023/04/16 11:39:13;;;;;;;29.35;15.75;;;14.40;99.90;;;;;;6248056;23;20328;-88
2023/04/16 11:41:51;;;;;;;27.35;15.02;;;14.40;99.90;;;;;;6248017;23;20058;-86
2023/04/16 11:44:25;;;;;;;26.55;15.88;;;14.40;99.90;;;;;;6220804;23;20323;-87
2023/04/16 11:46:51;;;;;;;26.45;14.88;;;14.50;99.90;;;;;;6247419;23;20007;-87
2023/04/16 11:49:48;;;;;;;26.45;15.23;;;14.50;99.90;;;;;;6220654;23;20007;-87
2023/04/16 11:52:27;;;;;;;25.15;14.05;;;14.60;99.90;;;;;;6249446;23;20028;-86
2023/04/16 11:54:53;;;;;;;28.25;14.85;;;14.60;99.90;;;;;;6220446;23;20011;-86
2023/04/16 11:57:29;;;;;;;24.75;13.80;;;14.70;99.90;;;;;;6195543;23;20012;-86
2023/04/16 11:59:59;;;;;;;25.17;14.65;;;14.70;99.90;;;;;;6220288;23;20086;-86
2023/04/16 12:02:44;;;;;;;27.92;14.35;;;14.80;99.90;;;;;;6195795;23;20019;-86
2023/04/16 12:05:54;;;;;;;25.45;13.90;;;14.80;99.90;;;;;;6220109;23;20087;-86
2023/04/16 12:08:32;;;;;;;25.35;13.65;;;14.80;99.90;;;;;;6220149;23;20004;-86
2023/04/16 12:10:58;;;;;;;25.25;13.90;;;14.90;99.90;;;;;;6248092;23;20586;-91
2023/04/16 12:13:24;;;;;;;27.33;14.10;;;14.90;99.90;;;;;;6172054;23;20019;-92
2023/04/16 12:15:52;;;;;;;25.60;13.43;;;15.00;99.90;;;;;;6171540;23;20016;-92
2023/04/16 12:18:19;;;;;;;23.90;14.48;;;15.10;99.90;;;;;;6221295;23;20008;-92
2023/04/16 12:20:45;;;;;;;22.13;13.02;;;15.10;99.90;;;;;;6171561;23;20451;-93
2023/04/16 12:23:24;;;;;;;26.67;13.52;;;15.10;99.90;;;;;;6196286;23;20008;-92
2023/04/16 12:25:50;;;;;;;25.80;14.57;;;15.20;99.90;;;;;;6221226;23;20011;-83
2023/04/16 12:28:50;;;;;;;24.70;14.55;;;15.20;99.90;;;;;;6194796;23;20007;-83
2023/04/16 12:31:16;;;;;;;24.85;13.77;;;15.30;99.90;;;;;;6219448;23;20389;-84